Time;durP1;ratioP1;P1;durP2;ratioP2;P2;SDS_P1;SDS_P2;PMS_P1;PMS_P2;Temp;Humidity;BMP_temperature;BMP_pressure;BME280_temperature;BME280_humidity;BME280_pressure;Samples;Min_cycle;Max_cycle;Signal;HPM_P1;HPM_P2
2023/06/17 00:01:01;;;;;;;9.57;8.82;;;;;;;30.14;51.07;100775.69;5054925;28;70446;-42
2023/06/17 00:03:32;;;;;;;;;;;;;;;29.91;52.85;100773.53;5058052;28;66630;-41
2023/06/17 00:06:04;;;;;;;9.00;8.30;;;;;;;30.21;51.48;100774.59;5052240;28;70125;-40
2023/06/17 00:08:35;;;;;;;9.70;8.70;;;;;;;30.28;51.31;100790.81;5057210;28;65262;-38
2023/06/17 00:11:06;;;;;;;9.37;8.50;;;;;;;30.32;52.17;100792.03;5050046;28;70553;-40
2023/06/17 00:13:38;;;;;;;10.02;9.30;;;;;;;30.21;52.21;100762.94;5048857;28;65080;-40
2023/06/17 00:16:12;;;;;;;;;;;;;;;30.10;54.33;100801.53;5036082;28;68952;-39
2023/06/17 00:18:43;;;;;;;7.90;7.40;;;;;;;30.40;53.07;100799.06;5058233;28;65961;-39
2023/06/17 00:21:15;;;;;;;9.18;8.43;;;;;;;30.32;53.22;100785.81;5052197;28;70139;-39
2023/06/17 00:23:46;;;;;;;9.23;7.95;;;;;;;30.37;53.12;100791.38;5057196;28;65655;-40
2023/06/17 00:26:19;;;;;;;8.45;7.55;;;;;;;30.00;52.99;100723.53;5021693;28;69192;-42
2023/06/17 00:28:50;;;;;;;8.52;7.78;;;;;;;30.56;53.08;100814.75;5055711;28;66172;-39
2023/06/17 00:31:21;;;;;;;17.33;8.00;;;;;;;30.63;53.79;100820.97;5056981;28;69146;-41
2023/06/17 00:33:53;;;;;;;8.13;7.40;;;;;;;30.65;54.02;100824.28;5056354;28;65879;-41
2023/06/17 00:36:25;;;;;;;19.02;10.73;;;;;;;30.72;60.81;100835.06;5053130;28;69665;-41
2023/06/17 00:38:56;;;;;;;23.50;10.65;;;;;;;30.75;63.54;100828.38;5053923;28;65425;-39
2023/06/17 00:41:28;;;;;;;17.23;11.25;;;;;;;30.77;64.65;100821.69;5055721;28;69880;-41
2023/06/17 00:43:59;;;;;;;24.00;10.95;;;;;;;30.82;66.07;100819.19;5037617;28;65086;-42
2023/06/17 00:46:41;;;;;;;19.70;11.93;;;;;;;30.13;68.73;100706.41;5054969;28;69971;-39
2023/06/17 00:49:12;;;;;;;9.57;8.77;;;;;;;30.89;64.63;100825.34;5054403;28;65701;-39
2023/06/17 00:51:45;;;;;;;9.75;8.88;;;;;;;30.45;65.27;100758.63;5058241;28;69872;-39
2023/06/17 00:54:41;;;;;;;10.18;9.02;;;;;;;30.26;67.25;100709.88;5056616;28;65803;-38
2023/06/17 00:57:14;;;;;;;10.05;7.93;;;;;;;30.43;65.70;100725.56;5056133;28;69966;-39
2023/06/17 00:59:46;;;;;;;8.40;7.78;;;;;;;30.93;66.16;100806.81;5051470;28;66438;-40
2023/06/17 01:02:17;;;;;;;28.90;17.17;;;;;;;30.93;74.11;100812.22;5020503;28;70838;-40
2023/06/17 01:04:49;;;;;;;28.60;17.52;;;;;;;31.02;73.17;100813.59;5055205;28;66244;-38
2023/06/17 01:07:46;;;;;;;29.83;16.42;;;;;;;31.00;73.82;100810.25;5054703;28;69641;-41
2023/06/17 01:10:30;;;;;;;41.05;28.95;;;;;;;29.83;73.67;100621.31;5058442;28;66448;-38
2023/06/17 01:13:05;;;;;;;30.92;19.73;;;;;;;31.05;73.48;100813.13;5061360;28;69430;-39
2023/06/17 01:15:37;;;;;;;20.85;15.05;;;;;;;30.84;73.08;100772.91;5044941;28;64981;-40
2023/06/17 01:18:09;;;;;;;22.08;13.52;;;;;;;30.91;72.52;100773.69;5034274;28;68675;-41
2023/06/17 01:20:41;;;;;;;14.70;12.75;;;;;;;31.13;72.31;100803.91;5056992;28;66024;-41
2023/06/17 01:23:15;;;;;;;19.52;12.93;;;;;;;31.19;71.70;100815.72;5057976;28;70344;-41
2023/06/17 01:25:46;;;;;;;19.45;13.00;;;;;;;31.20;72.25;100809.22;5038149;28;66334;-41
2023/06/17 01:28:19;;;;;;;13.10;11.73;;;;;;;31.22;72.85;100810.66;5054989;28;69098;-40
2023/06/17 01:30:56;;;;;;;23.05;12.15;;;;;;;30.14;73.06;100654.78;5058224;28;65958;-44
2023/06/17 01:33:28;;;;;;;12.98;10.52;;;;;;;31.27;73.15;100826.25;5061782;28;70294;-42
2023/06/17 01:36:14;;;;;;;11.27;10.25;;;;;;;31.22;73.53;100812.56;5042378;28;65721;-39
2023/06/17 01:38:52;;;;;;;17.83;9.98;;;;;;;30.96;73.64;100779.25;5067329;28;70034;-40
2023/06/17 01:41:42;;;;;;;18.38;11.68;;;;;;;31.20;74.24;100809.22;5061518;28;66060;-40
2023/06/17 01:44:16;;;;;;;14.43;10.57;;;;;;;31.23;74.11;100811.50;5057998;28;69341;-39
2023/06/17 01:46:47;;;;;;;11.77;10.52;;;;;;;31.21;74.37;100794.66;5065097;28;66487;-40
2023/06/17 01:49:19;;;;;;;13.05;11.48;;;;;;;31.05;74.11;100780.63;5063544;28;69685;-39
2023/06/17 01:51:51;;;;;;;11.80;9.77;;;;;;;31.39;73.47;100835.34;5043922;28;66251;-41
2023/06/17 01:54:23;;;;;;;18.23;9.60;;;;;;;31.39;73.45;100824.47;5041064;28;70913;-39
2023/06/17 01:56:55;;;;;;;15.40;9.70;;;;;;;31.39;73.91;100829.91;5044699;28;64894;-38
2023/06/17 01:59:26;;;;;;;13.18;8.95;;;;;;;31.34;73.30;100810.75;5043734;28;69917;-41
2023/06/17 02:01:58;;;;;;;20.02;8.77;;;;;;;31.48;73.70;100831.28;5063170;28;66305;-42
2023/06/17 02:04:29;;;;;;;9.73;6.80;;;;;;;31.46;71.19;100827.97;5062382;28;69807;-42
2023/06/17 02:07:00;;;;;;;8.35;6.38;;;;;;;31.55;70.70;100842.88;5059514;28;65738;-40
2023/06/17 02:09:32;;;;;;;11.48;6.30;;;;;;;31.64;70.21;100842.56;5042264;28;70329;-40
2023/06/17 02:12:06;;;;;;;11.32;6.55;;;;;;;30.56;69.74;100662.34;5027941;28;65185;-41
2023/06/17 02:14:38;;;;;;;7.35;6.28;;;;;;;31.70;69.62;100852.50;5061465;28;70508;-39
2023/06/17 02:17:11;;;;;;;7.22;6.57;;;;;;;31.73;68.87;100852.03;5069048;28;66783;-40
2023/06/17 02:19:43;;;;;;;6.30;5.82;;;;;;;31.75;69.14;100844.53;5042229;28;71582;-39
2023/06/17 02:22:15;;;;;;;6.43;5.93;;;;;;;31.70;69.18;100836.22;5061682;28;65320;-39
2023/06/17 02:24:46;;;;;;;7.13;6.35;;;;;;;31.80;68.95;100858.22;5029693;28;70235;-41
2023/06/17 02:27:17;;;;;;;6.90;5.75;;;;;;;31.74;68.56;100840.16;5063073;28;65656;-40
2023/06/17 02:29:48;;;;;;;6.70;6.05;;;;;;;31.87;68.60;100856.25;5059390;28;70059;-42
2023/06/17 02:32:20;;;;;;;8.33;6.43;;;;;;;31.89;68.50;100859.56;5049313;28;66125;-41
2023/06/17 02:34:51;;;;;;;6.25;5.72;;;;;;;31.93;68.13;100858.09;5046264;28;69374;-38
2023/06/17 02:37:22;;;;;;;7.17;6.57;;;;;;;31.96;68.04;100863.06;5059291;28;66678;-40
2023/06/17 02:39:54;;;;;;;6.93;5.95;;;;;;;31.99;67.58;100869.94;5043982;28;70111;-39
2023/06/17 02:42:26;;;;;;;6.90;5.68;;;;;;;32.01;67.81;100874.06;5041816;28;65255;-41
2023/06/17 02:44:57;;;;;;;8.73;5.75;;;;;;;32.00;67.69;100863.44;5042288;28;69552;-39
2023/06/17 02:47:28;;;;;;;8.07;5.77;;;;;;;32.02;67.64;100859.44;5059150;28;65376;-40
2023/06/17 02:50:00;;;;;;;6.72;6.25;;;;;;;32.06;67.69;100867.94;5062757;28;69403;-41
2023/06/17 02:52:34;;;;;;;6.60;6.20;;;;;;;32.11;67.42;100862.66;5043004;28;66648;-41
2023/06/17 02:55:07;;;;;;;7.38;6.82;;;;;;;32.12;67.41;100858.88;5042707;28;69994;-41
2023/06/17 02:57:38;;;;;;;7.28;6.75;;;;;;;31.97;67.18;100832.16;5061391;28;66311;-40
2023/06/17 03:00:10;;;;;;;7.85;6.68;;;;;;;32.20;67.01;100868.59;5065278;28;70212;-41
2023/06/17 03:02:42;;;;;;;7.05;6.55;;;;;;;32.04;66.75;100835.63;5065459;28;66452;-42
2023/06/17 03:05:14;;;;;;;7.95;7.25;;;;;;;32.23;66.88;100871.69;5057660;28;70696;-41
2023/06/17 03:07:47;;;;;;;7.70;7.10;;;;;;;31.96;66.71;100819.66;5058549;28;65888;-41
2023/06/17 03:10:19;;;;;;;6.63;6.22;;;;;;;32.29;66.75;100861.81;5043644;28;70375;-42
2023/06/17 03:13:01;;;;;;;7.45;7.05;;;;;;;31.98;66.46;100806.72;5029011;28;65404;-41
2023/06/17 03:15:33;;;;;;;7.07;6.47;;;;;;;32.29;66.54;100848.25;5040692;28;69809;-43
2023/06/17 03:18:05;;;;;;;6.75;6.30;;;;;;;31.87;66.29;100777.59;5056744;28;65736;-39
2023/06/17 03:20:38;;;;;;;6.88;6.38;;;;;;;32.36;66.17;100846.22;5060753;28;69498;-41
2023/06/17 03:23:11;;;;;;;9.85;7.43;;;;;;;32.41;66.26;100848.28;5056640;28;66441;-42
2023/06/17 03:25:44;;;;;;;7.50;7.10;;;;;;;32.41;66.03;100848.28;5061316;28;70368;-41
2023/06/17 03:28:15;;;;;;;7.28;6.75;;;;;;;32.41;66.01;100854.53;5060041;28;66072;-40
2023/06/17 03:30:48;;;;;;;7.57;7.07;;;;;;;32.37;66.12;100839.75;5045733;28;70381;-42
2023/06/17 03:33:19;;;;;;;7.78;7.18;;;;;;;32.46;66.03;100846.53;5041533;28;65548;-42
2023/06/17 03:35:50;;;;;;;7.63;7.07;;;;;;;32.51;65.99;100843.13;5058958;28;70054;-40
2023/06/17 03:38:22;;;;;;;7.80;7.28;;;;;;;32.38;65.59;100813.44;5044810;28;66627;-39
2023/06/17 03:40:54;;;;;;;8.02;7.30;;;;;;;32.55;65.66;100846.22;5039750;28;70519;-41
2023/06/17 03:43:25;;;;;;;8.52;7.82;;;;;;;32.56;65.68;100839.72;5059208;28;66410;-40
2023/06/17 03:45:57;;;;;;;9.65;8.95;;;;;;;32.42;66.89;100839.88;5042413;28;70863;-40
2023/06/17 03:48:28;;;;;;;10.93;9.90;;;;;;;32.26;67.46;100814.25;5044032;28;66685;-40
2023/06/17 03:51:02;;;;;;;10.35;7.88;;;;;;;32.34;67.55;100821.19;5057332;28;69051;-41
2023/06/17 03:53:34;;;;;;;14.82;8.75;;;;;;;32.36;67.91;100819.09;5047106;28;66550;-41
2023/06/17 03:56:06;;;;;;;36.80;10.73;;;;;;;32.28;68.07;100811.28;5040571;28;69139;-39
2023/06/17 03:58:37;;;;;;;33.13;10.55;;;;;;;32.16;67.90;100802.28;5058720;28;65905;-41
2023/06/17 04:01:12;;;;;;;41.45;9.60;;;;;;;32.32;67.87;100826.06;5045496;28;70100;-41
2023/06/17 04:03:44;;;;;;;18.33;9.23;;;;;;;31.88;66.44;100779.25;5037027;28;65692;-40
2023/06/17 04:06:16;;;;;;;26.27;8.52;;;;;;;31.84;64.55;100802.47;5030150;28;70734;-40
2023/06/17 04:08:47;;;;;;;13.27;7.32;;;;;;;31.78;62.36;100816.94;5058558;28;65710;-42
2023/06/17 04:11:19;;;;;;;13.05;7.25;;;;;;;31.66;60.62;100818.78;5056161;28;70526;-40
2023/06/17 04:13:51;;;;;;;10.35;6.05;;;;;;;31.45;59.86;100817.34;5035995;28;65177;-38
2023/06/17 04:16:23;;;;;;;9.15;6.75;;;;;;;31.36;58.20;100816.81;5057540;28;70531;-40
2023/06/17 04:18:55;;;;;;;10.38;6.63;;;;;;;31.24;56.94;100810.47;5044492;28;66127;-39
2023/06/17 04:21:26;;;;;;;9.63;6.25;;;;;;;31.11;56.18;100787.84;5061223;28;70109;-38
2023/06/17 04:23:57;;;;;;;7.95;4.95;;;;;;;31.19;55.39;100796.75;5060103;28;64916;-39
2023/06/17 04:26:30;;;;;;;9.45;5.53;;;;;;;30.90;54.54;100766.63;5046819;28;70386;-41
2023/06/17 04:29:01;;;;;;;8.05;6.00;;;;;;;30.99;53.18;100778.81;5041992;28;65998;-41
2023/06/17 04:31:36;;;;;;;5.55;5.05;;;;;;;30.84;52.87;100754.81;5039302;28;70086;-39
2023/06/17 04:34:12;;;;;;;5.50;5.05;;;;;;;30.73;52.26;100744.66;5042163;28;65935;-39
2023/06/17 04:36:43;;;;;;;5.38;4.70;;;;;;;30.92;51.79;100775.31;5045949;28;70141;-39
2023/06/17 04:39:16;;;;;;;9.43;4.87;;;;;;;30.82;51.02;100777.72;5056315;28;66031;-39
2023/06/17 04:41:48;;;;;;;6.13;4.70;;;;;;;30.82;50.93;100783.97;5055448;28;70948;-39
2023/06/17 04:44:20;;;;;;;4.72;4.28;;;;;;;30.84;50.02;100786.44;5022656;28;66568;-40
2023/06/17 04:46:52;;;;;;;4.38;4.07;;;;;;;30.40;51.37;100729.53;5052974;28;70141;-39
2023/06/17 04:49:24;;;;;;;4.03;3.72;;;;;;;30.86;49.89;100781.66;5039005;28;65484;-38
2023/06/17 04:51:56;;;;;;;7.05;3.97;;;;;;;30.72;49.34;100751.94;5039763;28;69993;-41
2023/06/17 04:54:28;;;;;;;5.15;4.07;;;;;;;30.75;48.54;100747.13;5039328;28;65670;-40
2023/06/17 04:57:00;;;;;;;7.60;3.38;;;;;;;30.77;47.68;100745.03;5039328;28;70195;-40
2023/06/17 04:59:31;;;;;;;4.88;3.65;;;;;;;30.75;47.23;100737.13;5055115;28;65786;-40
2023/06/17 05:02:04;;;;;;;5.15;3.75;;;;;;;30.61;46.96;100716.66;5038897;28;70018;-40
2023/06/17 05:04:36;;;;;;;4.95;4.45;;;;;;;30.71;45.89;100741.34;5039193;28;66578;-38
2023/06/17 05:07:08;;;;;;;3.72;3.45;;;;;;;30.66;45.86;100733.88;5019981;28;69332;-39
2023/06/17 05:09:41;;;;;;;4.72;3.85;;;;;;;30.65;45.50;100742.25;5033796;28;65715;-38
2023/06/17 05:12:13;;;;;;;3.33;3.13;;;;;;;30.60;45.23;100723.94;5059938;28;70140;-39
2023/06/17 05:14:44;;;;;;;3.83;3.53;;;;;;;30.49;44.57;100727.38;5042412;28;66452;-39
2023/06/17 05:17:16;;;;;;;3.72;3.42;;;;;;;30.06;44.54;100641.53;5041827;28;69099;-42
2023/06/17 05:19:48;;;;;;;3.53;3.30;;;;;;;30.49;44.28;100711.97;5040839;28;65919;-39
2023/06/17 05:22:20;;;;;;;4.10;3.70;;;;;;;30.47;44.02;100711.34;5040993;28;69659;-39
2023/06/17 05:24:51;;;;;;;3.90;3.40;;;;;;;30.49;43.29;100705.72;5056615;28;65302;-45
2023/06/17 05:27:23;;;;;;;3.67;3.40;;;;;;;30.48;43.42;100704.06;5053657;28;69784;-40
2023/06/17 05:29:56;;;;;;;36.30;4.05;;;;;;;30.37;43.94;100691.25;5041636;28;65502;-40
2023/06/17 05:32:28;;;;;;;16.90;3.47;;;;;;;30.46;44.94;100701.59;5032699;28;69870;-39
2023/06/17 05:34:59;;;;;;;2.97;2.75;;;;;;;30.27;44.51;100662.81;5053529;28;66295;-40
2023/06/17 05:37:33;;;;;;;7.75;3.03;;;;;;;30.50;43.59;100696.53;5036234;28;69384;-47
2023/06/17 05:40:06;;;;;;;4.20;3.03;;;;;;;30.50;43.99;100697.38;5039726;28;67016;-39
2023/06/17 05:42:38;;;;;;;3.90;2.95;;;;;;;30.48;43.04;100699.50;5021660;28;70004;-38
2023/06/17 05:45:10;;;;;;;3.58;3.38;;;;;;;30.48;43.39;100698.66;5033624;28;65727;-41
2023/06/17 05:47:41;;;;;;;3.97;3.67;;;;;;;30.48;43.03;100699.50;5039732;28;69544;-40
2023/06/17 05:50:13;;;;;;;4.68;4.20;;;;;;;30.42;42.79;100686.00;5044415;28;64986;-41
2023/06/17 05:52:45;;;;;;;4.53;3.95;;;;;;;30.48;43.47;100704.06;5042164;28;70170;-38
2023/06/17 05:55:17;;;;;;;3.50;3.30;;;;;;;30.48;42.93;100698.66;5061522;28;66191;-41
2023/06/17 05:57:51;;;;;;;4.45;3.83;;;;;;;30.43;42.51;100706.63;5043480;28;70540;-41
2023/06/17 06:00:23;;;;;;;19.33;4.18;;;;;;;30.51;44.09;100711.75;5058069;28;66133;-41
2023/06/17 06:02:56;;;;;;;20.20;4.50;;;;;;;29.98;43.38;100612.88;5057382;28;69306;-39
2023/06/17 06:05:27;;;;;;;14.93;3.92;;;;;;;30.51;43.69;100684.69;5043060;28;66264;-41
2023/06/17 06:08:01;;;;;;;6.55;3.67;;;;;;;30.47;44.25;100687.00;5059781;28;70145;-39
2023/06/17 06:10:33;;;;;;;6.03;3.60;;;;;;;30.42;43.78;100677.88;5062136;28;66060;-41
2023/06/17 06:13:05;;;;;;;19.60;3.63;;;;;;;30.49;43.77;100678.66;5046010;28;70096;-41
2023/06/17 06:15:37;;;;;;;11.27;3.97;;;;;;;30.42;43.55;100651.66;5057616;28;66625;-40
2023/06/17 06:18:08;;;;;;;8.73;3.33;;;;;;;30.46;43.59;100657.44;5044755;28;69808;-40
2023/06/17 06:20:40;;;;;;;22.00;3.50;;;;;;;30.50;43.76;100645.13;5047652;28;66499;-39
2023/06/17 06:23:11;;;;;;;20.08;3.75;;;;;;;30.40;43.69;100631.28;5052677;28;69772;-40
2023/06/17 06:25:42;;;;;;;4.05;3.08;;;;;;;30.36;43.44;100619.25;5042313;28;66631;-39
2023/06/17 06:28:14;;;;;;;5.80;2.78;;;;;;;30.44;42.76;100611.66;5058430;28;70099;-39
2023/06/17 06:30:47;;;;;;;8.18;2.90;;;;;;;30.28;42.96;100583.31;5050835;28;65360;-39
2023/06/17 06:33:18;;;;;;;5.88;2.55;;;;;;;30.22;43.24;100549.00;5055353;28;69935;-37
2023/06/17 06:35:51;;;;;;;4.90;2.40;;;;;;;30.51;43.12;100589.94;5042572;28;65306;-37
2023/06/17 06:38:23;;;;;;;6.72;3.33;;;;;;;30.50;43.13;100582.84;5048975;28;70355;-39
2023/06/17 06:40:55;;;;;;;6.18;2.72;;;;;;;30.42;42.22;100570.47;5042533;28;66473;-40
2023/06/17 06:43:28;;;;;;;8.27;3.15;;;;;;;30.45;42.69;100563.75;5060237;28;70000;-38
2023/06/17 06:46:04;;;;;;;4.13;2.33;;;;;;;30.03;42.35;100487.78;5044761;28;65635;-40
2023/06/17 06:48:35;;;;;;;5.53;2.67;;;;;;;30.49;42.44;100559.56;5065790;28;69624;-40
2023/06/17 06:51:07;;;;;;;2.63;2.43;;;;;;;30.37;42.84;100513.50;5059658;28;65398;-38
2023/06/17 06:53:38;;;;;;;2.67;2.10;;;;;;;30.32;42.08;100510.63;5060583;28;69808;-38
2023/06/17 06:56:09;;;;;;;2.55;2.20;;;;;;;30.54;42.90;100532.66;5069308;28;66396;-38
2023/06/17 06:58:41;;;;;;;7.65;2.40;;;;;;;30.57;42.23;100540.31;5054581;28;70411;-39
2023/06/17 07:01:16;;;;;;;2.17;2.05;;;;;;;30.61;41.73;100546.91;5042629;28;65812;-40
2023/06/17 07:03:47;;;;;;;2.05;1.95;;;;;;;30.42;42.48;100510.94;5045982;28;70382;-38
2023/06/17 07:06:19;;;;;;;2.42;2.22;;;;;;;30.63;41.85;100536.69;5036053;28;64926;-41
2023/06/17 07:08:51;;;;;;;2.60;2.40;;;;;;;30.58;41.85;100520.31;5042436;28;69608;-41
2023/06/17 07:11:24;;;;;;;3.60;2.50;;;;;;;30.60;41.57;100523.63;5042617;28;63938;-39
2023/06/17 07:13:56;;;;;;;;;;;;;;;30.38;42.18;100533.25;5060065;28;69429;-39
2023/06/17 07:16:27;;;;;;;2.42;2.22;;;;;;;30.57;41.26;100543.03;5041484;28;66081;-40
2023/06/17 07:18:58;;;;;;;2.65;2.47;;;;;;;30.49;41.55;100532.50;5042009;28;70087;-37
2023/06/17 07:21:30;;;;;;;6.00;2.25;;;;;;;30.58;41.67;100565.50;5034989;28;66107;-38
2023/06/17 07:24:01;;;;;;;3.45;2.30;;;;;;;30.58;42.24;100547.38;5036101;28;69367;-39
2023/06/17 07:26:33;;;;;;;4.65;2.20;;;;;;;30.39;41.73;100510.53;5053642;28;65763;-41
2023/06/17 07:29:04;;;;;;;4.30;2.15;;;;;;;30.35;41.24;100493.94;5017617;28;69161;-39
2023/06/17 07:31:37;;;;;;;2.75;2.55;;;;;;;30.56;41.23;100514.28;5041303;28;65885;-42
2023/06/17 07:34:08;;;;;;;1.80;1.70;;;;;;;30.49;41.72;100483.78;5051155;28;70254;-38
2023/06/17 07:36:40;;;;;;;8.83;2.33;;;;;;;30.11;41.66;100419.06;5037132;28;66136;-40
2023/06/17 07:39:12;;;;;;;2.53;2.10;;;;;;;30.62;41.79;100489.03;5049188;28;70500;-38
2023/06/17 07:41:44;;;;;;;2.28;2.08;;;;;;;30.39;41.83;100454.53;5057230;28;66786;-40
2023/06/17 07:44:15;;;;;;;11.07;2.72;;;;;;;30.57;41.82;100478.06;5058782;28;70020;-40
2023/06/17 07:46:47;;;;;;;16.13;2.88;;;;;;;30.65;41.90;100496.69;5052396;28;65467;-37
2023/06/17 07:49:18;;;;;;;17.27;3.03;;;;;;;30.67;42.31;100502.72;5057132;28;69459;-42
2023/06/17 07:51:49;;;;;;;3.00;2.77;;;;;;;30.62;41.74;100505.28;5036466;28;65887;-40
2023/06/17 07:54:21;;;;;;;9.57;2.97;;;;;;;30.57;41.75;100486.19;5047154;28;69480;-40
2023/06/17 07:56:52;;;;;;;11.33;2.57;;;;;;;30.81;43.88;100492.53;5061244;28;66064;-40
2023/06/17 07:59:23;;;;;;;3.20;3.00;;;;;;;31.04;48.93;100475.56;5061078;28;69886;-42
2023/06/17 08:01:55;;;;;;;3.58;3.28;;;;;;;31.29;51.45;100480.00;5060159;28;66059;-42
2023/06/17 08:04:29;;;;;;;3.97;3.67;;;;;;;31.46;52.48;100482.88;5046894;28;70379;-41
2023/06/17 08:07:01;;;;;;;5.60;3.67;;;;;;;31.56;52.79;100478.50;5061978;28;65804;-42
2023/06/17 08:09:32;;;;;;;4.20;3.90;;;;;;;31.74;53.06;100484.91;5056586;28;69956;-41
2023/06/17 08:12:05;;;;;;;4.75;4.35;;;;;;;31.90;53.45;100500.47;5035973;28;65382;-41
2023/06/17 08:14:36;;;;;;;5.38;4.97;;;;;;;31.86;53.88;100488.41;5061205;28;70465;-39
2023/06/17 08:17:08;;;;;;;6.10;5.50;;;;;;;32.04;54.67;100507.31;5062765;28;66520;-42
2023/06/17 08:19:40;;;;;;;6.28;5.80;;;;;;;32.15;55.16;100500.25;5057099;28;70185;-42
2023/06/17 08:22:12;;;;;;;5.82;5.43;;;;;;;32.25;55.45;100502.34;5059655;28;66478;-40
2023/06/17 08:24:44;;;;;;;9.95;5.15;;;;;;;32.14;55.58;100481.47;5058535;28;70155;-40
2023/06/17 08:27:15;;;;;;;6.25;5.72;;;;;;;32.31;56.06;100506.81;5060402;28;66646;-40
2023/06/17 08:29:46;;;;;;;6.90;5.88;;;;;;;32.39;56.08;100513.75;5057750;28;70172;-41
2023/06/17 08:32:18;;;;;;;6.35;5.82;;;;;;;32.46;56.55;100520.75;5058504;28;66462;-41
2023/06/17 08:34:49;;;;;;;6.03;5.53;;;;;;;32.35;56.74;100488.16;5057962;28;70049;-43
2023/06/17 08:37:21;;;;;;;6.22;5.72;;;;;;;32.55;57.12;100517.66;5061449;28;65062;-41
2023/06/17 08:39:52;;;;;;;5.25;4.93;;;;;;;32.59;57.25;100518.81;5056179;28;69535;-42
2023/06/17 08:42:23;;;;;;;5.90;5.40;;;;;;;32.63;57.82;100525.44;5060977;28;66739;-41
2023/06/17 08:44:58;;;;;;;6.32;5.80;;;;;;;32.60;58.32;100523.19;5061432;28;70124;-43
2023/06/17 08:47:30;;;;;;;6.07;5.55;;;;;;;32.68;58.36;100544.50;5059314;28;66961;-42
2023/06/17 08:50:02;;;;;;;6.57;5.82;;;;;;;32.65;58.70;100540.41;5057310;28;69967;-42
2023/06/17 08:52:36;;;;;;;9.18;5.53;;;;;;;32.73;59.10;100547.34;5059824;28;65933;-40
2023/06/17 08:55:08;;;;;;;9.63;6.45;;;;;;;32.55;59.15;100509.50;5051032;28;70505;-41
2023/06/17 08:57:41;;;;;;;6.32;5.90;;;;;;;32.20;59.35;100445.22;5055232;28;66933;-43
2023/06/17 09:00:13;;;;;;;7.50;6.50;;;;;;;32.71;59.03;100528.59;5057825;28;70521;-40
2023/06/17 09:02:45;;;;;;;6.80;6.20;;;;;;;32.82;59.12;100545.06;5058915;28;66389;-42
2023/06/17 09:05:17;;;;;;;6.82;6.30;;;;;;;32.83;59.58;100552.97;5059373;28;70272;-40
2023/06/17 09:07:48;;;;;;;6.78;6.28;;;;;;;32.60;60.05;100521.28;5058153;28;66569;-42
2023/06/17 09:10:19;;;;;;;7.30;6.23;;;;;;;32.78;59.69;100565.63;5025355;28;69037;-41
2023/06/17 09:12:52;;;;;;;10.43;6.85;;;;;;;32.71;59.97;100549.50;5059652;28;65272;-42
2023/06/17 09:15:23;;;;;;;7.63;6.28;;;;;;;32.68;60.09;100544.50;5051468;28;70625;-41
2023/06/17 09:17:57;;;;;;;6.78;6.13;;;;;;;32.80;60.04;100575.19;5059290;28;65131;-41
2023/06/17 09:20:33;;;;;;;5.90;5.50;;;;;;;32.82;61.03;100583.94;5058440;28;70073;-40
2023/06/17 09:23:04;;;;;;;7.88;5.72;;;;;;;32.72;60.50;100570.97;5051188;28;65767;-42
2023/06/17 09:25:36;;;;;;;6.10;5.57;;;;;;;32.80;60.47;100577.91;5061980;28;69052;-41
2023/06/17 09:28:09;;;;;;;5.65;5.20;;;;;;;32.14;61.56;100473.34;5062687;28;66488;-42
2023/06/17 09:30:53;;;;;;;6.18;5.68;;;;;;;32.17;62.44;100473.66;5062310;28;70535;-43
2023/06/17 09:33:26;;;;;;;6.10;5.60;;;;;;;32.27;61.69;100497.50;5058897;28;64765;-41
2023/06/17 09:36:04;;;;;;;8.32;6.65;;;;;;;32.58;65.55;100590.50;5059129;28;69622;-41
2023/06/17 09:38:39;;;;;;;7.40;6.72;;;;;;;32.57;65.82;100596.97;5058638;28;65770;-40
2023/06/17 09:41:15;;;;;;;11.38;6.15;;;;;;;32.52;66.13;100610.44;5056597;28;69159;-40
2023/06/17 09:43:51;;;;;;;9.38;6.57;;;;;;;32.51;66.44;100592.50;5061703;28;66709;-39
2023/06/17 09:46:35;;;;;;;7.75;6.93;;;;;;;31.99;67.08;100512.63;5041874;28;69074;-44
2023/06/17 09:49:16;;;;;;;11.48;7.25;;;;;;;32.39;67.89;100585.16;5060175;28;65638;-45
2023/06/17 09:51:48;;;;;;;8.90;8.13;;;;;;;32.43;67.76;100601.78;5066428;28;70436;-43
2023/06/17 09:54:20;;;;;;;7.57;6.93;;;;;;;32.36;67.33;100592.97;5059541;28;66526;-44
2023/06/17 09:56:52;;;;;;;8.50;6.57;;;;;;;32.46;67.50;100617.66;5063927;28;69968;-40
2023/06/17 09:59:23;;;;;;;;;;;;;;;32.22;68.37;100616.78;5063977;28;66090;-43
2023/06/17 10:01:54;;;;;;;7.30;6.72;;;;;;;32.41;67.75;100615.63;5063779;28;69218;-39
2023/06/17 10:04:25;;;;;;;8.00;7.13;;;;;;;32.37;68.08;100614.41;5058858;28;66738;-42
2023/06/17 10:07:00;;;;;;;8.13;6.87;;;;;;;31.88;68.28;100523.47;5064578;28;70028;-42
2023/06/17 10:09:31;;;;;;;8.65;7.75;;;;;;;32.37;68.47;100609.00;5062649;28;65928;-41
2023/06/17 10:12:05;;;;;;;13.90;7.88;;;;;;;32.38;69.42;100599.81;5060870;28;68510;-41
2023/06/17 10:14:38;;;;;;;8.02;7.22;;;;;;;32.38;69.06;100616.09;5065323;28;66265;-43
2023/06/17 10:17:10;;;;;;;11.63;7.13;;;;;;;32.38;69.17;100618.81;5057757;28;70346;-42
2023/06/17 10:19:45;;;;;;;9.32;7.22;;;;;;;32.29;69.30;100617.53;5061212;28;66027;-43
2023/06/17 10:22:21;;;;;;;7.88;7.00;;;;;;;32.36;68.72;100626.34;5060138;28;70551;-44
2023/06/17 10:24:52;;;;;;;7.40;6.80;;;;;;;32.23;68.73;100623.88;5074656;28;65822;-43
2023/06/17 10:27:24;;;;;;;8.25;7.35;;;;;;;32.27;68.84;100631.31;5060918;28;71225;-44
2023/06/17 10:29:58;;;;;;;7.68;6.28;;;;;;;31.75;68.14;100551.63;5048975;28;66363;-42
2023/06/17 10:32:29;;;;;;;6.72;6.13;;;;;;;32.11;68.52;100610.31;5059747;28;70382;-42
2023/06/17 10:35:08;;;;;;;7.28;6.63;;;;;;;32.24;68.24;100642.66;5052950;28;64857;-42
2023/06/17 10:37:57;;;;;;;6.80;6.20;;;;;;;32.19;68.13;100644.41;5057174;28;69928;-41
2023/06/17 10:40:30;;;;;;;5.38;4.97;;;;;;;32.16;68.24;100629.44;5060856;28;66271;-41
2023/06/17 10:43:05;;;;;;;5.95;5.45;;;;;;;32.21;67.93;100643.13;5043744;28;70277;-40
2023/06/17 10:45:57;;;;;;;6.38;5.90;;;;;;;31.97;67.97;100631.41;5042993;28;65148;-43
2023/06/17 10:48:30;;;;;;;6.28;5.43;;;;;;;32.02;68.13;100642.38;5048431;28;70448;-43
2023/06/17 10:51:03;;;;;;;6.18;4.55;;;;;;;31.99;67.99;100634.72;5059391;28;66377;-40
2023/06/17 10:53:36;;;;;;;5.60;5.20;;;;;;;32.11;67.91;100664.56;5031359;28;69719;-41
2023/06/17 10:56:07;;;;;;;5.10;4.70;;;;;;;31.95;68.12;100648.97;5060192;28;66402;-39
2023/06/17 10:58:48;;;;;;;4.68;4.28;;;;;;;31.41;67.74;100570.31;5061796;28;69887;-41
2023/06/17 11:01:19;;;;;;;5.28;3.97;;;;;;;32.05;67.81;100682.63;5053919;28;66837;-40
2023/06/17 11:03:51;;;;;;;4.97;4.57;;;;;;;32.04;67.17;100675.53;5060111;28;69425;-39
2023/06/17 11:06:22;;;;;;;4.80;4.25;;;;;;;31.97;68.07;100668.56;5058179;28;65311;-40
2023/06/17 11:08:53;;;;;;;5.35;5.03;;;;;;;31.98;67.86;100673.78;5057272;28;70301;-43
2023/06/17 11:11:24;;;;;;;6.72;5.07;;;;;;;31.97;67.96;100682.94;5057515;28;65368;-42
2023/06/17 11:13:56;;;;;;;5.67;4.50;;;;;;;31.97;68.08;100679.41;5056659;28;70077;-41
2023/06/17 11:16:29;;;;;;;5.07;4.72;;;;;;;31.91;67.89;100674.88;5059735;28;66512;-41
2023/06/17 11:19:01;;;;;;;6.47;4.88;;;;;;;31.89;67.27;100690.56;5057688;28;70515;-41
2023/06/17 11:21:32;;;;;;;8.18;6.10;;;;;;;31.91;67.45;100686.59;5056622;28;66464;-41
2023/06/17 11:24:04;;;;;;;6.67;6.00;;;;;;;31.93;67.45;100692.63;5057103;28;70131;-39
2023/06/17 11:26:35;;;;;;;16.35;7.30;;;;;;;31.88;67.69;100689.75;5050384;28;63711;-42
2023/06/17 11:29:07;;;;;;;11.95;7.68;;;;;;;31.71;68.29;100672.47;5054557;28;70408;-41
2023/06/17 11:31:40;;;;;;;11.70;7.85;;;;;;;31.88;68.21;100703.31;5056136;28;65875;-42
2023/06/17 11:34:13;;;;;;;16.98;8.45;;;;;;;31.88;69.01;100708.72;5054177;28;71209;-42
2023/06/17 11:36:51;;;;;;;10.75;7.47;;;;;;;31.77;68.93;100704.09;5059240;28;66849;-41
2023/06/17 11:39:24;;;;;;;9.43;8.63;;;;;;;31.85;69.31;100720.06;5064577;28;69220;-42
2023/06/17 11:42:02;;;;;;;13.75;8.95;;;;;;;31.83;69.53;100719.44;5061014;28;67854;-42
2023/06/17 11:44:35;;;;;;;9.90;9.00;;;;;;;31.06;69.61;100603.47;5062567;28;69713;-41
2023/06/17 11:47:08;;;;;;;13.70;8.63;;;;;;;31.77;69.75;100723.91;5065587;28;65810;-43
2023/06/17 11:49:43;;;;;;;9.38;8.48;;;;;;;31.72;69.88;100725.66;5060408;28;70618;-42